Time;durP1;ratioP1;P1;durP2;ratioP2;P2;SDS_P1;SDS_P2;PMS_P1;PMS_P2;Temp;Humidity;BMP_temperature;BMP_pressure;BME280_temperature;BME280_humidity;BME280_pressure;Samples;Min_cycle;Max_cycle;Signal;HPM_P1;HPM_P2
2023/03/04 09:12:34;;;;;;;4.15;1.58;;;;;;;8.88;77.18;102598.34;5351740;23;20051;-91
2023/03/04 09:14:59;;;;;;;7.72;1.80;;;;;;;9.04;78.53;102602.84;4944170;28;20035;-92
2023/03/04 09:17:30;;;;;;;9.43;1.88;;;;;;;9.11;77.73;102591.72;4923283;28;20431;-92
2023/03/04 09:19:55;;;;;;;6.15;2.25;;;;;;;9.33;78.11;102599.69;4917904;28;20026;-92
2023/03/04 09:22:20;;;;;;;5.53;1.65;;;;;;;9.36;76.04;102599.69;4928402;28;20124;-94
2023/03/04 09:24:58;;;;;;;4.10;1.55;;;;;;;9.28;75.83;102578.91;4926254;28;20298;-93
2023/03/04 09:27:26;;;;;;;7.15;1.80;;;;;;;9.54;78.06;102581.75;4930532;28;20158;-94
2023/03/04 09:30:11;;;;;;;6.25;1.50;;;;;;;9.71;76.43;102582.75;4935753;28;20035;-93
2023/03/04 09:32:42;;;;;;;4.90;1.40;;;;;;;9.65;71.96;102563.72;4951499;28;20039;-93
2023/03/04 09:35:48;;;;;;;2.95;1.52;;;;;;;9.66;75.52;102573.22;4952141;28;20519;-94
2023/03/04 09:38:26;;;;;;;;;;;;;;;;;;;;;
2023/03/04 09:44:56;;;;;;;5.93;1.75;;;;;;;9.98;72.33;102597.63;4926579;28;20047;-94
2023/03/04 09:47:35;;;;;;;7.97;2.03;;;;;;;9.64;73.26;102575.78;4937601;28;20039;-93
2023/03/04 09:50:26;;;;;;;8.77;2.30;;;;;;;9.57;75.90;102591.25;4954914;28;20488;-94
2023/03/04 09:53:37;;;;;;;;;;;;;;;;;;;;;
2023/03/04 09:59:45;;;;;;;5.13;1.42;;;;;;;9.25;75.96;102575.44;4952645;28;20050;-93
2023/03/04 10:02:48;;;;;;;4.32;1.50;;;;;;;9.34;76.97;102568.66;4935807;28;20042;-94
2023/03/04 10:05:48;;;;;;;;;;;;;;;;;;;;;
2023/03/04 10:08:47;;;;;;;5.95;1.73;;;;;;;9.73;75.88;102596.59;4950587;28;20158;-94
2023/03/04 10:12:00;;;;;;;6.65;1.52;;;;;;;9.74;75.47;102576.75;4947897;28;20036;-95
2023/03/04 10:18:00;;;;;;;;;;;;;;;;;;;;;
2023/03/04 10:21:14;;;;;;;5.43;1.60;;;;;;;9.76;75.37;102581.06;4935104;28;20042;-95
2023/03/04 10:23:40;;;;;;;5.35;1.58;;;;;;;9.57;73.72;102563.66;4909235;28;20058;-95
2023/03/04 10:26:38;;;;;;;4.72;1.60;;;;;;;9.43;74.02;102562.66;4937565;28;20040;-94
2023/03/04 10:29:23;;;;;;;4.75;1.90;;;;;;;9.25;75.43;102573.72;4915757;28;20067;-94
2023/03/04 10:31:54;;;;;;;5.28;1.58;;;;;;;8.95;75.77;102563.06;4926058;28;20075;-95
2023/03/04 10:34:59;;;;;;;4.90;1.90;;;;;;;8.79;77.45;102574.97;4914653;29;20055;-94
2023/03/04 10:37:51;;;;;;;10.25;2.30;;;;;;;8.59;78.78;102563.53;4919203;29;20098;-94
2023/03/04 10:47:31;;;;;;;;;;;;;;;;;;;;;
2023/03/04 10:51:07;;;;;;;6.90;2.00;;;;;;;9.01;77.62;102556.22;4926719;28;20048;-96
2023/03/04 10:54:22;;;;;;;;;;;;;;;;;;;;;
2023/03/04 10:57:15;;;;;;;4.85;1.60;;;;;;;9.83;77.25;102567.28;4929521;28;20043;-94
2023/03/04 10:59:52;;;;;;;7.00;1.77;;;;;;;10.10;75.56;102570.94;4911917;28;20046;-95
2023/03/04 11:05:27;;;;;;;4.28;1.50;;;;;;;10.20;75.63;102563.25;4914592;28;20036;-92
2023/03/04 11:08:15;;;;;;;4.60;1.75;;;;;;;10.05;74.29;102542.41;4909554;29;20044;-93
2023/03/04 11:10:44;;;;;;;5.60;1.63;;;;;;;9.89;75.19;102535.41;4926087;28;20043;-92
2023/03/04 11:13:11;;;;;;;3.50;1.52;;;;;;;9.71;74.78;102562.03;4912787;29;20055;-94
2023/03/04 11:15:55;;;;;;;3.60;1.77;;;;;;;9.52;77.23;102560.16;4914903;29;20042;-93
2023/03/04 11:18:30;;;;;;;3.60;1.30;;;;;;;9.48;79.16;102530.78;4914778;29;20043;-93
2023/03/04 11:20:57;;;;;;;4.03;1.23;;;;;;;9.90;78.14;102547.47;4928871;28;20388;-94
2023/03/04 11:24:08;;;;;;;4.55;1.40;;;;;;;10.16;77.72;102534.72;4915637;29;20043;-94
2023/03/04 11:27:05;;;;;;;;;;;;;;;;;;;;;
2023/03/04 11:33:07;;;;;;;3.88;1.35;;;;;;;10.02;75.74;102500.94;4927940;28;21076;-93
2023/03/04 11:35:58;;;;;;;2.40;1.20;;;;;;;10.53;75.85;102535.75;4935508;28;20035;-94
2023/03/04 11:38:48;;;;;;;1.73;1.30;;;;;;;10.63;75.20;102509.00;4935177;28;20051;-94
2023/03/04 11:41:44;;;;;;;3.60;1.40;;;;;;;10.78;74.22;102514.19;4897041;29;20054;-92
2023/03/04 11:44:40;;;;;;;4.88;1.90;;;;;;;10.79;75.19;102500.38;4921731;28;20040;-95
2023/03/04 11:47:32;;;;;;;2.60;1.67;;;;;;;10.76;75.06;102494.34;4913063;28;20381;-94
2023/03/04 11:50:37;;;;;;;4.28;2.33;;;;;;;10.45;72.73;102507.19;4915565;29;20044;-93
2023/03/04 11:53:30;;;;;;;;;;;;;;;10.19;75.08;102519.19;4914023;29;20440;-92
2023/03/04 11:56:21;;;;;;;4.07;2.60;;;;;;;9.82;76.42;102507.75;4917971;29;19923;-92
2023/03/04 11:58:59;;;;;;;4.07;2.55;;;;;;;10.07;76.85;102511.31;4928633;28;20135;-92
2023/03/04 12:01:44;;;;;;;4.75;2.75;;;;;;;10.24;76.49;102499.34;4932884;28;20039;-91
2023/03/04 12:04:12;;;;;;;;;;;;;;;10.38;76.66;102500.25;4916050;29;20102;-93
2023/03/04 12:07:17;;;;;;;4.88;2.70;;;;;;;10.31;76.05;102488.13;4921931;29;19961;-93
2023/03/04 12:10:07;;;;;;;3.70;2.60;;;;;;;10.42;75.89;102495.97;4930781;28;20194;-94
2023/03/04 12:12:57;;;;;;;4.47;2.60;;;;;;;10.47;75.53;102486.47;4931125;28;20135;-93
2023/03/04 12:15:47;;;;;;;;;;;;;;;;;;;;;
2023/03/04 12:18:47;;;;;;;3.78;2.70;;;;;;;9.83;76.64;102480.97;4932583;28;20044;-93
2023/03/04 12:21:33;;;;;;;4.03;2.55;;;;;;;9.41;77.94;102476.41;4913674;28;20091;-93
2023/03/04 12:24:48;;;;;;;5.28;2.67;;;;;;;9.18;79.34;102455.50;4903369;28;20046;-93
2023/03/04 12:27:27;;;;;;;5.38;2.97;;;;;;;9.21;79.14;102450.34;4933176;28;20398;-93
2023/03/04 12:30:15;;;;;;;5.68;2.88;;;;;;;9.49;80.57;102465.22;4931917;28;20447;-94
2023/03/04 12:32:52;;;;;;;5.25;2.55;;;;;;;9.80;78.82;102452.47;4915728;29;20464;-93
2023/03/04 12:35:40;;;;;;;4.72;2.92;;;;;;;10.18;78.42;102456.13;4921125;29;20425;-92
2023/03/04 12:38:37;;;;;;;5.13;2.88;;;;;;;10.49;78.22;102453.66;4913774;28;20476;-94
2023/03/04 12:41:27;;;;;;;3.83;2.30;;;;;;;10.66;76.33;102450.22;4914128;29;20065;-93
2023/03/04 12:44:15;;;;;;;5.70;2.63;;;;;;;10.67;73.73;102440.72;4931017;28;20043;-94
2023/03/04 12:47:25;;;;;;;5.47;2.60;;;;;;;10.62;75.10;102445.03;4927024;28;20048;-94
2023/03/04 12:50:09;;;;;;;4.30;2.47;;;;;;;10.47;74.08;102447.59;4911930;29;20099;-94
2023/03/04 12:53:03;;;;;;;5.97;3.13;;;;;;;10.14;74.97;102445.72;4946297;28;20109;-93
2023/03/04 12:55:43;;;;;;;5.10;2.67;;;;;;;9.83;75.20;102418.81;4932659;28;20098;-94
2023/03/04 12:58:28;;;;;;;4.78;2.60;;;;;;;9.86;76.19;102430.06;4916306;28;20127;-93
2023/03/04 13:01:06;;;;;;;4.28;2.63;;;;;;;9.72;76.70;102433.44;4915995;29;20046;-94
2023/03/04 13:03:41;;;;;;;3.90;2.90;;;;;;;9.41;77.54;102428.09;4899229;28;20047;-92
2023/03/04 13:06:22;;;;;;;5.28;2.92;;;;;;;9.22;78.70;102415.88;4938611;28;20035;-92
2023/03/04 13:09:02;;;;;;;5.60;3.30;;;;;;;9.21;80.31;102434.00;4929646;28;20487;-91
2023/03/04 13:11:31;;;;;;;4.78;3.25;;;;;;;9.00;80.93;102440.72;4938859;28;20051;-93
2023/03/04 13:14:21;;;;;;;5.43;3.50;;;;;;;8.83;83.33;102439.69;4927790;28;20052;-92
2023/03/04 13:16:51;;;;;;;6.47;3.45;;;;;;;8.51;85.27;102417.84;4902370;29;20040;-92
2023/03/04 13:19:47;;;;;;;7.65;3.60;;;;;;;8.37;88.08;102432.34;4910651;29;20124;-93
2023/03/04 13:22:31;;;;;;;8.07;3.53;;;;;;;8.11;91.85;102437.19;4904900;29;20057;-93
2023/03/04 13:24:58;;;;;;;6.03;2.70;;;;;;;7.77;95.40;102412.66;4920803;29;20521;-94
2023/03/04 13:28:14;;;;;;;5.10;2.92;;;;;;;7.66;95.30;102403.88;4910153;29;20054;-94
2023/03/04 13:31:14;;;;;;;4.50;2.47;;;;;;;7.61;96.77;102396.09;4825046;29;20045;-92
2023/03/04 13:34:03;;;;;;;7.38;2.90;;;;;;;7.74;99.29;102407.44;4827052;29;20042;-93
2023/03/04 13:36:57;;;;;;;2.90;1.90;;;;;;;7.86;98.02;102405.88;4906403;29;20044;-93
2023/03/04 13:39:27;;;;;;;4.50;2.35;;;;;;;7.98;99.95;102404.31;4893472;29;20122;-93
2023/03/04 13:41:56;;;;;;;3.28;2.20;;;;;;;8.12;96.26;102401.00;4910397;29;20489;-93
2023/03/04 13:44:41;;;;;;;3.58;1.98;;;;;;;8.36;95.21;102413.38;4893917;29;20041;-94
2023/03/04 13:47:34;;;;;;;5.43;1.98;;;;;;;8.47;95.41;102385.94;4916106;29;20127;-93
2023/03/04 13:50:48;;;;;;;5.32;2.08;;;;;;;8.69;94.56;102382.69;4889495;29;20059;-93
2023/03/04 13:53:36;;;;;;;4.35;1.92;;;;;;;8.92;95.06;102398.41;4870739;29;20041;-93
2023/03/04 13:56:40;;;;;;;3.97;1.95;;;;;;;9.04;94.98;102375.22;4858939;29;20093;-93
2023/03/04 13:59:27;;;;;;;4.20;2.20;;;;;;;9.29;91.82;102402.13;4879399;29;20045;-94
2023/03/04 14:02:10;;;;;;;4.03;2.03;;;;;;;9.10;90.84;102366.63;4909335;29;20606;-94
2023/03/04 14:04:38;;;;;;;6.25;2.10;;;;;;;9.03;90.91;102383.84;4896602;29;20040;-93
2023/03/04 14:07:35;;;;;;;4.72;2.10;;;;;;;8.84;89.99;102365.56;4911807;29;20040;-93
2023/03/04 14:10:16;;;;;;;4.47;1.98;;;;;;;8.80;91.48;102390.56;4902976;29;20127;-95
2023/03/04 14:12:59;;;;;;;5.22;2.20;;;;;;;8.48;90.41;102366.13;4914112;29;20048;-95
2023/03/04 14:15:33;;;;;;;29.00;3.55;;;;;;;8.46;92.25;102397.09;4930565;28;20075;-93
2023/03/04 14:18:06;;;;;;;6.83;2.17;;;;;;;8.17;92.58;102370.97;4929505;28;20127;-94
2023/03/04 14:20:50;;;;;;;5.70;2.45;;;;;;;8.03;93.34;102369.94;4912583;28;20050;-94
2023/03/04 14:23:31;;;;;;;8.13;2.42;;;;;;;7.95;94.81;102366.41;4910749;28;20603;-92
2023/03/04 14:26:26;;;;;;;5.80;1.65;;;;;;;7.90;94.70;102368.06;4945134;28;20487;-94
2023/03/04 14:28:56;;;;;;;3.45;1.52;;;;;;;8.03;96.61;102392.31;4911841;28;20039;-93
2023/03/04 14:31:29;;;;;;;6.35;2.20;;;;;;;7.90;97.60;102360.34;4930266;28;20034;-95
2023/03/04 14:34:01;;;;;;;4.65;1.88;;;;;;;7.91;96.86;102362.91;4930177;28;20570;-94
2023/03/04 14:39:56;;;;;;;9.57;2.03;;;;;;;8.12;96.96;102362.28;4942552;22;20100;-87
2023/03/04 14:42:34;;;;;;;4.55;1.65;;;;;;;8.29;95.31;102373.66;5028306;22;20124;-91
2023/03/04 14:50:19;;;;;;;6.05;1.38;;;;;;;8.61;92.17;102350.75;5060186;22;20048;-86
2023/03/04 14:53:24;;;;;;;5.40;1.55;;;;;;;8.68;91.04;102343.91;5147385;22;20554;-95
2023/03/04 14:56:10;;;;;;;4.47;1.45;;;;;;;8.75;89.10;102350.84;5049498;28;20032;-96
2023/03/04 14:58:56;;;;;;;8.15;1.63;;;;;;;8.79;88.65;102344.00;5048216;28;20024;-95
2023/03/04 15:05:27;;;;;;;5.60;1.48;;;;;;;8.73;88.19;102356.88;5066321;28;20028;-94
2023/03/04 15:08:54;;;;;;;6.28;1.80;;;;;;;8.41;88.01;102330.75;5069415;28;20062;-94
2023/03/04 15:11:38;;;;;;;6.32;1.70;;;;;;;8.15;89.02;102335.63;4889587;29;20668;-93
2023/03/04 15:14:45;;;;;;;9.90;1.92;;;;;;;8.09;88.35;102354.50;4969938;28;20070;-95
2023/03/04 15:20:32;;;;;;;10.48;2.28;;;;;;;7.46;85.89;102345.16;5068740;28;20551;-95
2023/03/04 15:23:39;;;;;;;12.35;2.22;;;;;;;7.35;86.56;102353.59;5048764;28;20041;-94
2023/03/04 15:26:39;;;;;;;6.90;1.92;;;;;;;7.05;87.24;102330.81;5049711;28;20083;-94
2023/03/04 15:29:37;;;;;;;10.55;2.00;;;;;;;7.03;87.68;102345.38;5066880;28;20029;-94
2023/03/04 15:32:08;;;;;;;10.65;1.92;;;;;;;7.06;88.48;102348.03;5049961;28;20100;-93
2023/03/04 15:34:34;;;;;;;8.02;1.60;;;;;;;6.94;87.73;102320.34;5046920;28;20476;-94
2023/03/04 15:37:07;;;;;;;8.25;1.73;;;;;;;6.96;87.57;102321.22;5048484;28;20031;-94
2023/03/04 15:39:54;;;;;;;10.18;1.65;;;;;;;7.12;86.44;102340.38;5049645;28;20083;-95
2023/03/04 15:42:50;;;;;;;7.57;1.58;;;;;;;7.14;87.76;102334.41;5046893;28;20163;-92
2023/03/04 15:45:31;;;;;;;10.73;1.98;;;;;;;7.34;87.80;102352.72;5070271;28;20034;-92
2023/03/04 15:48:22;;;;;;;7.35;1.60;;;;;;;7.28;86.11;102338.88;5036333;28;20845;-94
2023/03/04 15:51:15;;;;;;;9.52;1.88;;;;;;;7.22;85.65;102331.06;5048852;28;20037;-95
2023/03/04 15:53:57;;;;;;;8.90;1.90;;;;;;;7.28;86.39;102339.75;5050427;28;20040;-94
2023/03/04 15:56:35;;;;;;;10.35;1.50;;;;;;;7.28;85.59;102338.88;5035255;28;20083;-94
2023/03/04 15:59:28;;;;;;;4.80;1.77;;;;;;;7.30;85.26;102350.94;5034238;28;20483;-95
2023/03/04 16:01:53;;;;;;;10.07;2.15;;;;;;;7.00;84.50;102335.03;5035179;28;20021;-94
2023/03/04 16:04:22;;;;;;;7.90;1.63;;;;;;;6.96;85.18;102346.16;5051853;28;20028;-94
2023/03/04 16:07:00;;;;;;;;;;;;;;;;;;;;;
2023/03/04 16:09:53;;;;;;;8.07;2.05;;;;;;;6.87;85.14;102357.19;5051885;28;20033;-93
2023/03/04 16:12:25;;;;;;;6.97;1.50;;;;;;;6.66;84.78;102328.50;5026262;28;20043;-94
2023/03/04 16:14:51;;;;;;;4.55;1.40;;;;;;;6.64;83.49;102338.78;5035252;28;20131;-93
2023/03/04 16:20:20;;;;;;;7.38;1.73;;;;;;;6.59;83.80;102345.56;5045891;28;20052;-92
2023/03/04 16:22:51;;;;;;;8.88;2.10;;;;;;;6.55;85.54;102324.88;5032128;28;20123;-93
2023/03/04 16:25:21;;;;;;;8.07;2.65;;;;;;;6.49;84.80;102317.03;5036495;28;20094;-93
2023/03/04 16:28:07;;;;;;;;;;;;;;;;;;;;;
2023/03/04 16:30:44;;;;;;;9.55;2.35;;;;;;;6.65;84.91;102332.78;5051806;28;20384;-94
2023/03/04 16:33:10;;;;;;;7.20;2.25;;;;;;;6.60;84.61;102325.81;5032520;28;20057;-93
2023/03/04 16:35:37;;;;;;;6.82;1.73;;;;;;;6.68;85.17;102340.56;5052974;28;20021;-93
2023/03/04 16:39:01;;;;;;;6.40;1.83;;;;;;;6.69;84.57;102338.84;5034796;28;20053;-93
2023/03/04 16:44:26;;;;;;;6.50;1.40;;;;;;;6.53;82.98;102319.72;5007654;28;20422;-94
2023/03/04 16:47:19;;;;;;;;;;;;;;;;;;;;;
2023/03/04 16:49:52;;;;;;;6.68;1.73;;;;;;;6.47;83.56;102324.75;5053555;28;20534;-93
2023/03/04 16:52:48;;;;;;;6.00;1.33;;;;;;;6.42;83.21;102333.22;5037274;28;20041;-95
2023/03/04 16:58:38;;;;;;;5.25;1.80;;;;;;;6.39;82.10;102346.94;5041513;28;20496;-93
2023/03/04 17:01:19;;;;;;;6.32;1.50;;;;;;;6.23;82.56;102330.34;5022837;28;20095;-93
2023/03/04 17:03:45;;;;;;;4.45;1.30;;;;;;;6.18;82.75;102320.81;5034437;28;20029;-93
2023/03/04 17:06:40;;;;;;;5.15;1.60;;;;;;;6.34;83.64;102358.88;5045909;28;20439;-93
2023/03/04 17:09:54;;;;;;;8.30;1.50;;;;;;;6.18;84.66;102338.81;5023827;28;20025;-93
2023/03/04 17:12:40;;;;;;;6.30;1.45;;;;;;;6.24;84.66;102362.09;5025826;28;20373;-95
2023/03/04 17:15:16;;;;;;;4.95;1.30;;;;;;;6.13;85.18;102349.03;5025234;28;20113;-94
2023/03/04 17:17:45;;;;;;;5.63;1.10;;;;;;;6.06;84.81;102346.31;5043966;28;20035;-94
2023/03/04 17:20:32;;;;;;;5.18;1.60;;;;;;;6.01;85.59;102346.22;5031117;28;20028;-93
2023/03/04 17:23:42;;;;;;;2.65;1.15;;;;;;;5.94;85.85;102339.22;5032480;28;20137;-95
2023/03/04 17:26:49;;;;;;;9.75;1.95;;;;;;;5.88;85.99;102337.41;5000297;28;20036;-94
2023/03/04 17:29:32;;;;;;;6.85;1.50;;;;;;;5.85;86.93;102329.59;4913847;29;20759;-94
2023/03/04 17:32:06;;;;;;;3.58;1.30;;;;;;;5.89;87.35;102345.97;4917067;29;20028;-93
2023/03/04 17:34:42;;;;;;;4.53;1.45;;;;;;;5.74;87.22;102336.22;5013376;28;20041;-94
2023/03/04 17:37:16;;;;;;;5.45;1.70;;;;;;;5.80;87.23;102356.09;5031433;28;20107;-96
2023/03/04 17:39:44;;;;;;;;;;;;;;;5.90;87.41;102368.31;5034081;28;21539;-94
2023/03/04 17:45:53;;;;;;;7.00;1.63;;;;;;;5.67;87.66;102343.78;5017601;28;20029;-95
2023/03/04 17:48:21;;;;;;;4.53;1.15;;;;;;;5.68;88.03;102354.09;4947532;28;20043;-93
2023/03/04 17:50:53;;;;;;;3.20;1.45;;;;;;;5.61;88.15;102339.38;4986748;28;20594;-95
2023/03/04 17:56:30;;;;;;;2.88;1.40;;;;;;;5.52;87.15;102347.78;4997431;28;20038;-93
2023/03/04 17:59:43;;;;;;;4.40;1.25;;;;;;;5.44;86.71;102346.75;4994798;28;20667;-96
2023/03/04 18:02:17;;;;;;;6.82;1.58;;;;;;;5.40;86.14;102350.09;5012897;28;20107;-95
2023/03/04 18:05:04;;;;;;;3.97;1.73;;;;;;;5.41;86.43;102340.66;4998199;28;20537;-94
2023/03/04 18:07:37;;;;;;;3.72;1.38;;;;;;;5.48;87.12;102361.41;5013482;28;20107;-95
2023/03/04 18:10:40;;;;;;;4.70;2.00;;;;;;;5.59;86.92;102373.66;5042058;28;20076;-93
2023/03/04 18:13:52;;;;;;;6.32;1.58;;;;;;;5.57;85.32;102371.91;4997498;28;20041;-93
2023/03/04 18:19:41;;;;;;;7.93;1.80;;;;;;;5.43;85.05;102344.16;4974888;28;20092;-93
2023/03/04 18:22:15;;;;;;;5.22;1.90;;;;;;;5.57;83.45;102373.59;5000262;28;20049;-94
2023/03/04 18:25:09;;;;;;;;;;;;;;;;;;;;;
2023/03/04 18:27:44;;;;;;;16.23;2.58;;;;;;;5.40;82.72;102344.94;4997683;28;20537;-95
2023/03/04 18:30:16;;;;;;;8.93;2.30;;;;;;;5.46;83.14;102350.22;5005491;28;20032;-95
2023/03/04 18:32:53;;;;;;;;;;;;;;;;;;;;;
2023/03/04 18:35:28;;;;;;;6.20;2.05;;;;;;;5.54;81.93;102376.97;5046822;28;20021;-94
2023/03/04 18:38:58;;;;;;;;;;;;;;;;;;;;;
2023/03/04 18:41:45;;;;;;;4.63;1.60;;;;;;;5.39;80.42;102350.91;5054813;28;20042;-94
2023/03/04 18:44:49;;;;;;;7.38;1.48;;;;;;;5.38;79.22;102351.78;5032026;28;20510;-95
2023/03/04 21:41:17;;;;;;;9.70;2.50;;;;;;;4.56;90.01;102319.03;4854537;29;20039;-94
2023/03/04 21:44:50;;;;;;;;;;;;;;;;;;;;;
2023/03/04 22:12:20;;;;;;;12.10;2.17;;;;;;;4.64;93.39;102332.06;5120585;22;19942;-84
2023/03/04 22:14:46;;;;;;;10.00;1.70;;;;;;;4.59;92.94;102326.78;5039209;28;20417;-84
2023/03/04 22:19:41;;;;;;;10.70;2.00;;;;;;;4.58;95.18;102326.75;5024716;22;20588;-84
2023/03/04 22:22:06;;;;;;;10.05;2.00;;;;;;;4.48;96.40;102327.38;5093243;22;20057;-86
2023/03/04 22:24:31;;;;;;;8.85;2.25;;;;;;;4.37;96.26;102327.94;4664888;22;20084;-84
2023/03/04 22:26:58;;;;;;;11.48;2.10;;;;;;;4.26;98.01;102319.13;4913039;22;20834;-87
2023/03/04 22:29:24;;;;;;;10.90;2.00;;;;;;;4.17;97.92;102318.88;4859524;22;20061;-84
2023/03/04 22:31:49;;;;;;;12.18;2.20;;;;;;;4.16;99.12;102319.69;5045500;23;20171;-91
2023/03/04 22:37:05;;;;;;;9.60;2.63;;;;;;;4.17;99.17;102318.88;5044056;22;20433;-86
2023/03/04 22:39:30;;;;;;;9.73;2.40;;;;;;;4.18;99.50;102315.47;5067508;23;20076;-81
2023/03/04 22:44:40;;;;;;;9.30;2.30;;;;;;;4.11;99.31;102302.44;5132952;22;20045;-86
2023/03/04 22:49:39;;;;;;;8.30;2.38;;;;;;;4.18;100.00;102315.47;4860466;22;21218;-84
2023/03/04 22:52:05;;;;;;;11.63;2.17;;;;;;;4.19;100.00;102316.34;5018852;23;20080;-84
2023/03/04 22:54:30;;;;;;;9.52;2.58;;;;;;;4.14;100.00;102307.66;5082558;22;20028;-87
2023/03/04 22:56:55;;;;;;;12.40;2.33;;;;;;;4.15;100.00;102309.41;5077828;23;20307;-87
2023/03/04 22:59:21;;;;;;;14.80;2.50;;;;;;;4.16;99.86;102311.16;5153290;22;20056;-92
2023/03/04 23:01:46;;;;;;;10.75;2.10;;;;;;;4.16;100.00;102313.72;5059129;23;20054;-84
2023/03/04 23:04:12;;;;;;;12.45;2.53;;;;;;;4.14;100.00;102308.53;5141350;22;20049;-84
2023/03/04 23:09:05;;;;;;;9.45;2.15;;;;;;;4.17;100.00;102307.72;5047069;22;20031;-87
2023/03/04 23:11:33;;;;;;;9.30;2.55;;;;;;;4.17;100.00;102297.47;5017267;22;20579;-84
2023/03/04 23:14:03;;;;;;;10.30;2.20;;;;;;;4.16;100.00;102295.75;5034191;28;20033;-84
2023/03/04 23:16:29;;;;;;;10.85;2.30;;;;;;;4.17;100.00;102298.34;5015138;28;20029;-84
2023/03/04 23:18:54;;;;;;;10.95;2.40;;;;;;;4.13;100.00;102295.66;5049868;23;20119;-84
2023/03/04 23:23:50;;;;;;;12.73;2.35;;;;;;;4.01;100.00;102279.97;5163308;22;20914;-84
2023/03/04 23:28:49;;;;;;;12.93;3.90;;;;;;;4.01;100.00;102291.09;4982380;28;20047;-84
2023/03/04 23:31:14;;;;;;;11.82;2.83;;;;;;;3.96;100.00;102283.25;4984597;28;20049;-84
2023/03/04 23:33:45;;;;;;;11.23;3.00;;;;;;;3.98;100.00;102286.75;4370836;23;20032;-86
2023/03/04 23:36:12;;;;;;;14.65;2.85;;;;;;;4.01;99.83;102287.66;4710746;22;20058;-86
2023/03/04 23:38:40;;;;;;;10.77;2.60;;;;;;;4.04;100.00;102286.03;5047389;22;20583;-83
2023/03/04 23:41:05;;;;;;;16.17;3.10;;;;;;;4.02;99.36;102281.69;4771361;23;20076;-83
2023/03/04 23:43:31;;;;;;;8.20;2.70;;;;;;;3.95;100.00;102276.41;5023045;23;20049;-91
2023/03/04 23:45:57;;;;;;;13.60;3.08;;;;;;;3.89;100.00;102281.34;4676837;23;20046;-83
2023/03/04 23:48:22;;;;;;;10.52;2.45;;;;;;;3.79;99.73;102269.13;4977403;22;20057;-87
2023/03/04 23:53:18;;;;;;;10.38;2.67;;;;;;;3.61;100.00;102273.78;4998298;22;20054;-83
2023/03/04 23:55:44;;;;;;;9.82;2.53;;;;;;;3.56;100.00;102272.75;4922569;23;20050;-83
